AirNav   TITAN Aviation Fuels
 
 586 users online  

5WI3 Der Schwarzwald Airport
Waterloo, Wisconsin, USA

GOING TO WATERLOO?


FAA INFORMATION EFFECTIVE 11 AUGUST 2022

Location

FAA Identifier: 5WI3
Lat/Long: 43-12-27.9800N 089-01-01.3930W
43-12.466333N 089-01.023217W
43.2077722,-89.0170536
(estimated)
Elevation: 925 ft. / 282 m (estimated)
Variation: 00W (1985)
From city: 2 miles NW of WATERLOO, WI
Time zone: UTC -5 (UTC -6 during Standard Time)
Zip code: 53594

Airport Operations

Airport use: Private use. Permission required prior to landing
Activation date: 07/1989
Control tower: no
ARTCC: CHICAGO CENTER
FSS: GREEN BAY FLIGHT SERVICE STATION
Attendance: UNATNDD
Wind indicator: yes
Segmented circle: no

Airport Communications

WX AWOS-3 at RYV (13 nm E): 119.975 (920-261-0734)
WX ASOS at MSN (15 nm W): PHONE 608-249-0615
WX AWOS-3 at UNU (19 nm NE): 120.825 (920-386-5682)

Nearby radio navigation aids

VOR radial/distance  VOR name  Freq  Var
MSNr072/14.6MADISON VORTAC108.6003E
BAEr278/32.5BADGER VOR/DME116.4002E
DLLr119/38.5DELLS VORTAC117.0003E
JVLr003/39.2JANESVILLE VOR/DME114.3003E

 
NDB name  Hdg/Dist  Freq  Var  ID
ROCK RIVER280/12.937101WRYV .-. -.-- ...-
JUNEAU227/19.134401WUNU ..- -. ..-

Airport Services

Runway Information

Runway 4/22

Dimensions: 2000 x 70 ft. / 610 x 21 m
Surface: turf
RUNWAY 4  RUNWAY 22
Traffic pattern: leftleft
Displaced threshold: 700 ft.300 ft.
Obstructions: 50 ft. trees, 200 ft. from runway30 ft. pline, 600 ft. from runway

Airport Ownership and Management from official FAA records

Ownership: Privately-owned
Owner: HILLAKER CO.
6422 YORK HTS. RD
WATERLOO, WI 53594
Phone (920) 478-3800
Manager: ALVIN E. WHITAKER
6422 YORK HTS. RD
WATERLOO, WI 53594
Phone (920) 478-3800

Airport Operational Statistics

Aircraft based on the field: 2
Single engine airplanes: 2
    

Additional Remarks

FOR CD CTC CHICAGO ARTCC AT 630-906-8921.

Instrument Procedures

There are no published instrument procedures at 5WI3.

Some nearby airports with instrument procedures:

87Y - Blackhawk Airfield (10 nm SW)
KRYV - Watertown Municipal Airport (13 nm E)
KMSN - Dane County Regional Airport-Truax Field (15 nm W)
61C - Fort Atkinson Municipal Airport (17 nm SE)
KUNU - Dodge County Airport (19 nm NE)
 
Loc | Ops | Rwys | IFR | FBO | Links
Com | Nav | Svcs | Stats | Notes
Area around 5WI3 (Der Schwarzwald Airport)
 
Road maps at: MapQuest Bing Google
 
Aerial photo
No photo
 
Sectional chart

 
Airport distance calculator
Flying to Der Schwarzwald Airport? Find the distance to fly.

From to 5WI3

Sunrise and sunset
Times for 13-Aug-2022
 Local
(UTC-5)
 Zulu
(UTC)
Morning civil twilight05:2910:29
Sunrise06:0011:00
Sunset20:0101:01
Evening civil twilight20:3201:32

Current date and time
Zulu (UTC)  13-Aug-2022 06:18:26
Local (UTC-5)  13-Aug-2022 01:18:26
 
METAR
KRYV 
13nm E 
130555Z AUTO 13004KT 10SM SCT095 17/16 A3014 RMK AO2 T01660160 10187 20156 402010099
KMSN 
15nm W 
130553Z AUTO 17006KT 10SM CLR 18/15 A3012 RMK AO2 SLP197 T01830150 10189 20167 401940117 56010
KUNU 
19nm NE 
130555Z AUTO 13004KT 10SM BKN095 17/15 A3014 RMK AO2 T01660151 10185 20160 401990105
KC29 
23nm W 
130555Z AUTO 14004KT 10SM CLR 18/15 A3012 RMK AO1 T01770151 10186 20166 401960126
TAF
KMSN 
15nm W 
130529Z 1306/1406 16006KT P6SM BKN120 FM131000 17007KT P6SM -SHRA FEW060 BKN100 FM131400 18011G22KT P6SM VCSH BKN090 FM132100 21009KT P6SM VCSH BKN040 FM140400 01006KT P6SM BKN029
NOTAMs
Click for the latest NOTAMs
NOTAMs are issued by the DoD/FAA and will open in a separate window not controlled by AirNav.

 

 
 

Would you like to see your business listed on this page?

 If your business provides an interesting product or service to pilots, flight crews, aircraft, or users of the Der Schwarzwald Airport, you should consider listing it here.  To start the listing process, click on the button below
 
Add a business
 

Other Pages about Der Schwarzwald Airport

Update a link
 
Copyright © AirNav, LLC. All rights reserved. Privacy Policy  Contact